sensor_id;sensor_type;location;lat;lon;timestamp;P1;durP1;ratioP1;P2;durP2;ratioP2
58581;SDS011;44361;51.476;5.700;2023-04-15T00:02:15;8.10;;;3.83;;
58581;SDS011;44361;51.476;5.700;2023-04-15T00:04:43;9.93;;;4.63;;
58581;SDS011;44361;51.476;5.700;2023-04-15T00:07:09;10.32;;;4.57;;
58581;SDS011;44361;51.476;5.700;2023-04-15T00:09:35;8.70;;;5.00;;
58581;SDS011;44361;51.476;5.700;2023-04-15T00:12:00;10.23;;;4.85;;
58581;SDS011;44361;51.476;5.700;2023-04-15T00:14:26;16.48;;;4.95;;
58581;SDS011;44361;51.476;5.700;2023-04-15T00:16:52;17.58;;;4.60;;
58581;SDS011;44361;51.476;5.700;2023-04-15T00:19:20;12.32;;;5.03;;
58581;SDS011;44361;51.476;5.700;2023-04-15T00:21:46;10.45;;;4.93;;
58581;SDS011;44361;51.476;5.700;2023-04-15T00:24:11;10.07;;;4.68;;
58581;SDS011;44361;51.476;5.700;2023-04-15T00:26:37;15.23;;;5.55;;
58581;SDS011;44361;51.476;5.700;2023-04-15T00:29:03;14.30;;;5.75;;
58581;SDS011;44361;51.476;5.700;2023-04-15T00:31:29;14.32;;;5.15;;
58581;SDS011;44361;51.476;5.700;2023-04-15T00:33:55;9.95;;;5.28;;
58581;SDS011;44361;51.476;5.700;2023-04-15T00:36:21;10.77;;;5.30;;
58581;SDS011;44361;51.476;5.700;2023-04-15T00:38:47;13.57;;;5.55;;
58581;SDS011;44361;51.476;5.700;2023-04-15T00:41:12;15.38;;;5.30;;
58581;SDS011;44361;51.476;5.700;2023-04-15T00:43:38;12.85;;;5.03;;
58581;SDS011;44361;51.476;5.700;2023-04-15T00:46:04;10.00;;;5.13;;
58581;SDS011;44361;51.476;5.700;2023-04-15T00:48:31;13.23;;;5.43;;
58581;SDS011;44361;51.476;5.700;2023-04-15T00:50:57;19.70;;;5.30;;
58581;SDS011;44361;51.476;5.700;2023-04-15T00:53:23;9.07;;;5.10;;
58581;SDS011;44361;51.476;5.700;2023-04-15T00:55:49;9.38;;;5.13;;
58581;SDS011;44361;51.476;5.700;2023-04-15T00:58:15;10.10;;;4.97;;
58581;SDS011;44361;51.476;5.700;2023-04-15T01:00:41;10.68;;;4.65;;
58581;SDS011;44361;51.476;5.700;2023-04-15T01:03:07;11.15;;;5.15;;
58581;SDS011;44361;51.476;5.700;2023-04-15T01:05:33;11.93;;;4.97;;
58581;SDS011;44361;51.476;5.700;2023-04-15T01:08:00;15.45;;;5.90;;
58581;SDS011;44361;51.476;5.700;2023-04-15T01:10:26;9.40;;;5.18;;
58581;SDS011;44361;51.476;5.700;2023-04-15T01:12:52;9.70;;;5.07;;
58581;SDS011;44361;51.476;5.700;2023-04-15T01:15:18;12.75;;;5.43;;
58581;SDS011;44361;51.476;5.700;2023-04-15T01:17:44;8.70;;;4.50;;
58581;SDS011;44361;51.476;5.700;2023-04-15T01:20:10;9.23;;;5.18;;
58581;SDS011;44361;51.476;5.700;2023-04-15T01:22:36;8.70;;;4.90;;
58581;SDS011;44361;51.476;5.700;2023-04-15T01:25:09;9.52;;;4.63;;
58581;SDS011;44361;51.476;5.700;2023-04-15T01:27:37;9.32;;;5.05;;
58581;SDS011;44361;51.476;5.700;2023-04-15T01:30:05;11.07;;;5.57;;
58581;SDS011;44361;51.476;5.700;2023-04-15T01:32:32;13.13;;;5.85;;
58581;SDS011;44361;51.476;5.700;2023-04-15T01:34:57;11.18;;;5.40;;
58581;SDS011;44361;51.476;5.700;2023-04-15T01:37:23;8.77;;;5.82;;
58581;SDS011;44361;51.476;5.700;2023-04-15T01:39:49;13.20;;;6.15;;
58581;SDS011;44361;51.476;5.700;2023-04-15T01:42:15;17.90;;;6.90;;
58581;SDS011;44361;51.476;5.700;2023-04-15T01:44:41;14.40;;;6.03;;
58581;SDS011;44361;51.476;5.700;2023-04-15T01:47:06;9.00;;;5.40;;
58581;SDS011;44361;51.476;5.700;2023-04-15T01:49:32;14.75;;;6.38;;
58581;SDS011;44361;51.476;5.700;2023-04-15T01:51:58;15.93;;;6.25;;
58581;SDS011;44361;51.476;5.700;2023-04-15T01:54:24;12.55;;;6.50;;
58581;SDS011;44361;51.476;5.700;2023-04-15T01:56:50;12.80;;;6.57;;
58581;SDS011;44361;51.476;5.700;2023-04-15T01:59:16;14.98;;;5.97;;
58581;SDS011;44361;51.476;5.700;2023-04-15T02:01:41;10.52;;;6.32;;
58581;SDS011;44361;51.476;5.700;2023-04-15T02:04:07;10.75;;;6.65;;
58581;SDS011;44361;51.476;5.700;2023-04-15T02:06:40;13.30;;;6.15;;
58581;SDS011;44361;51.476;5.700;2023-04-15T02:09:06;12.00;;;6.30;;
58581;SDS011;44361;51.476;5.700;2023-04-15T02:11:32;12.48;;;6.50;;
58581;SDS011;44361;51.476;5.700;2023-04-15T02:13:59;14.18;;;6.25;;
58581;SDS011;44361;51.476;5.700;2023-04-15T02:16:24;12.25;;;6.20;;
58581;SDS011;44361;51.476;5.700;2023-04-15T02:18:50;17.13;;;7.15;;
58581;SDS011;44361;51.476;5.700;2023-04-15T02:21:16;11.73;;;6.88;;
58581;SDS011;44361;51.476;5.700;2023-04-15T02:23:42;12.07;;;6.53;;
58581;SDS011;44361;51.476;5.700;2023-04-15T02:26:08;11.68;;;6.07;;
58581;SDS011;44361;51.476;5.700;2023-04-15T02:28:34;13.73;;;6.93;;
58581;SDS011;44361;51.476;5.700;2023-04-15T02:31:00;11.05;;;6.53;;
58581;SDS011;44361;51.476;5.700;2023-04-15T02:33:33;15.20;;;6.95;;
58581;SDS011;44361;51.476;5.700;2023-04-15T02:35:59;12.30;;;6.85;;
58581;SDS011;44361;51.476;5.700;2023-04-15T02:38:25;13.02;;;7.65;;
58581;SDS011;44361;51.476;5.700;2023-04-15T02:40:50;11.75;;;6.47;;
58581;SDS011;44361;51.476;5.700;2023-04-15T02:43:16;15.50;;;7.63;;
58581;SDS011;44361;51.476;5.700;2023-04-15T02:45:42;15.70;;;6.38;;
58581;SDS011;44361;51.476;5.700;2023-04-15T02:48:09;14.35;;;6.60;;
58581;SDS011;44361;51.476;5.700;2023-04-15T02:50:35;11.55;;;6.55;;
58581;SDS011;44361;51.476;5.700;2023-04-15T02:53:03;12.18;;;6.22;;
58581;SDS011;44361;51.476;5.700;2023-04-15T02:55:29;11.00;;;6.78;;
58581;SDS011;44361;51.476;5.700;2023-04-15T02:57:55;13.52;;;7.18;;
58581;SDS011;44361;51.476;5.700;2023-04-15T03:00:22;13.10;;;7.03;;
58581;SDS011;44361;51.476;5.700;2023-04-15T03:02:49;13.98;;;6.10;;
58581;SDS011;44361;51.476;5.700;2023-04-15T03:05:20;12.88;;;6.57;;
58581;SDS011;44361;51.476;5.700;2023-04-15T03:07:49;13.73;;;6.68;;
58581;SDS011;44361;51.476;5.700;2023-04-15T03:10:15;12.82;;;6.68;;
58581;SDS011;44361;51.476;5.700;2023-04-15T03:12:40;16.80;;;7.40;;
58581;SDS011;44361;51.476;5.700;2023-04-15T03:15:06;15.10;;;6.78;;
58581;SDS011;44361;51.476;5.700;2023-04-15T03:17:33;18.38;;;7.57;;
58581;SDS011;44361;51.476;5.700;2023-04-15T03:19:58;10.07;;;6.80;;
58581;SDS011;44361;51.476;5.700;2023-04-15T03:22:25;18.83;;;6.95;;
58581;SDS011;44361;51.476;5.700;2023-04-15T03:24:51;13.50;;;6.50;;
58581;SDS011;44361;51.476;5.700;2023-04-15T03:27:16;9.82;;;6.45;;
58581;SDS011;44361;51.476;5.700;2023-04-15T03:29:42;11.68;;;7.10;;
58581;SDS011;44361;51.476;5.700;2023-04-15T03:32:07;12.63;;;7.50;;
58581;SDS011;44361;51.476;5.700;2023-04-15T03:34:33;13.10;;;7.13;;
58581;SDS011;44361;51.476;5.700;2023-04-15T03:36:58;13.05;;;7.38;;
58581;SDS011;44361;51.476;5.700;2023-04-15T03:39:24;20.13;;;7.68;;
58581;SDS011;44361;51.476;5.700;2023-04-15T03:41:50;13.02;;;8.05;;
58581;SDS011;44361;51.476;5.700;2023-04-15T03:44:15;14.30;;;7.38;;
58581;SDS011;44361;51.476;5.700;2023-04-15T03:46:41;15.73;;;7.75;;
58581;SDS011;44361;51.476;5.700;2023-04-15T03:49:06;15.30;;;7.22;;
58581;SDS011;44361;51.476;5.700;2023-04-15T03:51:32;12.57;;;7.47;;
58581;SDS011;44361;51.476;5.700;2023-04-15T03:53:58;12.02;;;7.20;;
58581;SDS011;44361;51.476;5.700;2023-04-15T03:56:24;14.23;;;7.25;;
58581;SDS011;44361;51.476;5.700;2023-04-15T03:58:50;12.02;;;7.47;;
58581;SDS011;44361;51.476;5.700;2023-04-15T04:01:15;14.88;;;7.45;;
58581;SDS011;44361;51.476;5.700;2023-04-15T04:03:41;18.52;;;8.65;;
58581;SDS011;44361;51.476;5.700;2023-04-15T04:06:06;17.40;;;7.18;;
58581;SDS011;44361;51.476;5.700;2023-04-15T04:08:32;14.90;;;7.22;;
58581;SDS011;44361;51.476;5.700;2023-04-15T04:10:58;14.45;;;7.55;;
58581;SDS011;44361;51.476;5.700;2023-04-15T04:13:23;15.27;;;7.18;;
58581;SDS011;44361;51.476;5.700;2023-04-15T04:15:49;15.95;;;7.88;;
58581;SDS011;44361;51.476;5.700;2023-04-15T04:18:14;17.35;;;7.80;;
58581;SDS011;44361;51.476;5.700;2023-04-15T04:20:40;17.58;;;7.85;;
58581;SDS011;44361;51.476;5.700;2023-04-15T04:23:06;13.75;;;7.63;;
58581;SDS011;44361;51.476;5.700;2023-04-15T04:25:31;14.38;;;7.97;;
58581;SDS011;44361;51.476;5.700;2023-04-15T04:27:57;13.60;;;7.55;;
58581;SDS011;44361;51.476;5.700;2023-04-15T04:30:23;13.07;;;7.70;;
58581;SDS011;44361;51.476;5.700;2023-04-15T04:32:49;16.52;;;8.35;;
58581;SDS011;44361;51.476;5.700;2023-04-15T04:35:15;13.70;;;8.00;;
58581;SDS011;44361;51.476;5.700;2023-04-15T04:37:41;14.88;;;7.95;;
58581;SDS011;44361;51.476;5.700;2023-04-15T04:40:07;16.48;;;8.68;;
58581;SDS011;44361;51.476;5.700;2023-04-15T04:42:33;16.63;;;8.40;;
58581;SDS011;44361;51.476;5.700;2023-04-15T04:44:59;16.23;;;8.38;;
58581;SDS011;44361;51.476;5.700;2023-04-15T04:47:24;15.20;;;7.70;;
58581;SDS011;44361;51.476;5.700;2023-04-15T04:49:50;15.38;;;7.38;;
58581;SDS011;44361;51.476;5.700;2023-04-15T04:52:15;19.85;;;8.88;;
58581;SDS011;44361;51.476;5.700;2023-04-15T04:54:41;15.90;;;8.13;;
58581;SDS011;44361;51.476;5.700;2023-04-15T04:57:06;16.35;;;8.18;;
58581;SDS011;44361;51.476;5.700;2023-04-15T04:59:32;13.75;;;7.68;;
58581;SDS011;44361;51.476;5.700;2023-04-15T05:01:58;13.27;;;7.45;;
58581;SDS011;44361;51.476;5.700;2023-04-15T05:04:23;12.93;;;7.72;;
58581;SDS011;44361;51.476;5.700;2023-04-15T05:06:50;17.08;;;8.43;;
58581;SDS011;44361;51.476;5.700;2023-04-15T05:09:15;16.48;;;9.85;;
58581;SDS011;44361;51.476;5.700;2023-04-15T05:11:41;15.45;;;8.15;;
58581;SDS011;44361;51.476;5.700;2023-04-15T05:14:06;13.98;;;8.15;;
58581;SDS011;44361;51.476;5.700;2023-04-15T05:16:32;13.40;;;8.25;;
58581;SDS011;44361;51.476;5.700;2023-04-15T05:18:57;14.70;;;8.80;;
58581;SDS011;44361;51.476;5.700;2023-04-15T05:21:23;16.60;;;8.70;;
58581;SDS011;44361;51.476;5.700;2023-04-15T05:23:49;17.30;;;8.73;;
58581;SDS011;44361;51.476;5.700;2023-04-15T05:26:15;16.77;;;9.10;;
58581;SDS011;44361;51.476;5.700;2023-04-15T05:28:41;15.63;;;8.40;;
58581;SDS011;44361;51.476;5.700;2023-04-15T05:31:07;19.92;;;9.70;;
58581;SDS011;44361;51.476;5.700;2023-04-15T05:33:32;17.67;;;9.60;;
58581;SDS011;44361;51.476;5.700;2023-04-15T05:35:58;15.70;;;8.45;;
58581;SDS011;44361;51.476;5.700;2023-04-15T05:38:24;14.35;;;7.47;;
58581;SDS011;44361;51.476;5.700;2023-04-15T05:40:49;12.93;;;8.02;;
58581;SDS011;44361;51.476;5.700;2023-04-15T05:43:15;13.25;;;7.82;;
58581;SDS011;44361;51.476;5.700;2023-04-15T05:45:40;15.10;;;7.43;;
58581;SDS011;44361;51.476;5.700;2023-04-15T05:48:06;13.07;;;7.40;;
58581;SDS011;44361;51.476;5.700;2023-04-15T05:50:32;15.05;;;7.85;;
58581;SDS011;44361;51.476;5.700;2023-04-15T05:52:57;12.00;;;7.60;;
58581;SDS011;44361;51.476;5.700;2023-04-15T05:55:23;15.70;;;7.90;;
58581;SDS011;44361;51.476;5.700;2023-04-15T05:57:48;12.70;;;7.32;;
58581;SDS011;44361;51.476;5.700;2023-04-15T06:00:14;16.67;;;8.02;;
58581;SDS011;44361;51.476;5.700;2023-04-15T06:02:40;14.75;;;8.82;;
58581;SDS011;44361;51.476;5.700;2023-04-15T06:05:06;17.02;;;8.98;;
58581;SDS011;44361;51.476;5.700;2023-04-15T06:07:36;15.35;;;8.18;;
58581;SDS011;44361;51.476;5.700;2023-04-15T06:10:02;13.20;;;7.88;;
58581;SDS011;44361;51.476;5.700;2023-04-15T06:12:29;13.90;;;7.20;;
58581;SDS011;44361;51.476;5.700;2023-04-15T06:14:55;14.75;;;7.70;;
58581;SDS011;44361;51.476;5.700;2023-04-15T06:17:20;12.50;;;7.63;;
58581;SDS011;44361;51.476;5.700;2023-04-15T06:19:46;13.65;;;7.40;;
58581;SDS011;44361;51.476;5.700;2023-04-15T06:22:11;11.90;;;7.38;;
58581;SDS011;44361;51.476;5.700;2023-04-15T06:24:37;14.75;;;7.63;;
58581;SDS011;44361;51.476;5.700;2023-04-15T06:27:03;12.75;;;6.63;;
58581;SDS011;44361;51.476;5.700;2023-04-15T06:29:28;12.40;;;7.30;;
58581;SDS011;44361;51.476;5.700;2023-04-15T06:31:54;14.07;;;8.15;;
58581;SDS011;44361;51.476;5.700;2023-04-15T06:34:20;15.35;;;8.27;;
58581;SDS011;44361;51.476;5.700;2023-04-15T06:36:46;14.23;;;8.23;;
58581;SDS011;44361;51.476;5.700;2023-04-15T06:39:12;14.35;;;8.63;;
58581;SDS011;44361;51.476;5.700;2023-04-15T06:41:37;14.43;;;9.23;;
58581;SDS011;44361;51.476;5.700;2023-04-15T06:44:03;13.52;;;7.88;;
58581;SDS011;44361;51.476;5.700;2023-04-15T06:46:29;14.27;;;8.30;;
58581;SDS011;44361;51.476;5.700;2023-04-15T06:48:54;14.38;;;7.95;;
58581;SDS011;44361;51.476;5.700;2023-04-15T06:51:20;12.85;;;7.65;;
58581;SDS011;44361;51.476;5.700;2023-04-15T06:53:47;12.57;;;7.70;;
58581;SDS011;44361;51.476;5.700;2023-04-15T06:56:13;15.65;;;8.18;;
58581;SDS011;44361;51.476;5.700;2023-04-15T06:58:39;14.98;;;7.30;;
58581;SDS011;44361;51.476;5.700;2023-04-15T07:01:04;14.55;;;8.20;;
58581;SDS011;44361;51.476;5.700;2023-04-15T07:03:30;11.07;;;7.57;;
58581;SDS011;44361;51.476;5.700;2023-04-15T07:05:56;17.08;;;8.07;;
58581;SDS011;44361;51.476;5.700;2023-04-15T07:08:22;12.80;;;7.57;;
58581;SDS011;44361;51.476;5.700;2023-04-15T07:10:48;14.05;;;7.32;;
58581;SDS011;44361;51.476;5.700;2023-04-15T07:13:14;11.77;;;7.28;;
58581;SDS011;44361;51.476;5.700;2023-04-15T07:15:40;17.55;;;7.68;;
58581;SDS011;44361;51.476;5.700;2023-04-15T07:18:06;12.38;;;7.32;;
58581;SDS011;44361;51.476;5.700;2023-04-15T07:20:31;12.50;;;8.35;;
58581;SDS011;44361;51.476;5.700;2023-04-15T07:22:57;13.77;;;7.72;;
58581;SDS011;44361;51.476;5.700;2023-04-15T07:25:22;12.00;;;7.43;;
58581;SDS011;44361;51.476;5.700;2023-04-15T07:27:48;11.75;;;7.00;;
58581;SDS011;44361;51.476;5.700;2023-04-15T07:30:14;13.73;;;7.50;;
58581;SDS011;44361;51.476;5.700;2023-04-15T07:32:40;11.75;;;7.30;;
58581;SDS011;44361;51.476;5.700;2023-04-15T07:35:06;11.60;;;6.88;;
58581;SDS011;44361;51.476;5.700;2023-04-15T07:37:32;12.13;;;7.38;;
58581;SDS011;44361;51.476;5.700;2023-04-15T07:39:57;11.55;;;6.95;;
58581;SDS011;44361;51.476;5.700;2023-04-15T07:42:23;12.35;;;7.43;;
58581;SDS011;44361;51.476;5.700;2023-04-15T07:44:49;15.70;;;7.60;;
58581;SDS011;44361;51.476;5.700;2023-04-15T07:47:15;13.13;;;6.70;;
58581;SDS011;44361;51.476;5.700;2023-04-15T07:49:41;9.23;;;6.10;;
58581;SDS011;44361;51.476;5.700;2023-04-15T07:52:07;11.32;;;6.22;;
58581;SDS011;44361;51.476;5.700;2023-04-15T07:54:33;11.38;;;6.97;;
58581;SDS011;44361;51.476;5.700;2023-04-15T07:56:59;10.85;;;6.82;;
58581;SDS011;44361;51.476;5.700;2023-04-15T07:59:25;11.55;;;6.18;;
58581;SDS011;44361;51.476;5.700;2023-04-15T08:01:54;10.25;;;6.18;;
58581;SDS011;44361;51.476;5.700;2023-04-15T08:04:19;10.18;;;5.97;;
58581;SDS011;44361;51.476;5.700;2023-04-15T08:06:45;9.77;;;5.95;;
58581;SDS011;44361;51.476;5.700;2023-04-15T08:09:12;7.40;;;4.68;;
58581;SDS011;44361;51.476;5.700;2023-04-15T08:11:48;7.47;;;4.72;;
58581;SDS011;44361;51.476;5.700;2023-04-15T08:14:16;7.20;;;4.88;;
58581;SDS011;44361;51.476;5.700;2023-04-15T08:16:42;8.27;;;4.97;;
58581;SDS011;44361;51.476;5.700;2023-04-15T08:19:08;6.93;;;4.28;;
58581;SDS011;44361;51.476;5.700;2023-04-15T08:21:33;6.93;;;4.70;;
58581;SDS011;44361;51.476;5.700;2023-04-15T08:23:59;7.32;;;4.40;;
58581;SDS011;44361;51.476;5.700;2023-04-15T08:26:25;8.18;;;3.88;;
58581;SDS011;44361;51.476;5.700;2023-04-15T08:28:51;6.63;;;4.07;;
58581;SDS011;44361;51.476;5.700;2023-04-15T08:31:17;7.00;;;4.05;;
58581;SDS011;44361;51.476;5.700;2023-04-15T08:33:43;7.75;;;4.53;;
58581;SDS011;44361;51.476;5.700;2023-04-15T08:36:09;6.43;;;4.20;;
58581;SDS011;44361;51.476;5.700;2023-04-15T08:38:40;8.43;;;5.10;;
58581;SDS011;44361;51.476;5.700;2023-04-15T08:41:08;6.55;;;4.65;;
58581;SDS011;44361;51.476;5.700;2023-04-15T08:43:42;7.15;;;4.22;;
58581;SDS011;44361;51.476;5.700;2023-04-15T08:46:17;5.90;;;4.20;;
58581;SDS011;44361;51.476;5.700;2023-04-15T08:48:47;9.73;;;5.03;;
58581;SDS011;44361;51.476;5.700;2023-04-15T08:51:13;8.27;;;4.40;;
58581;SDS011;44361;51.476;5.700;2023-04-15T08:53:40;7.80;;;4.20;;
58581;SDS011;44361;51.476;5.700;2023-04-15T08:56:08;7.20;;;3.92;;
58581;SDS011;44361;51.476;5.700;2023-04-15T08:58:35;6.20;;;4.30;;
58581;SDS011;44361;51.476;5.700;2023-04-15T09:01:02;9.77;;;4.32;;
58581;SDS011;44361;51.476;5.700;2023-04-15T09:03:27;6.90;;;4.10;;
58581;SDS011;44361;51.476;5.700;2023-04-15T09:05:53;6.43;;;4.53;;
58581;SDS011;44361;51.476;5.700;2023-04-15T09:08:19;6.13;;;4.10;;
58581;SDS011;44361;51.476;5.700;2023-04-15T09:10:45;7.63;;;4.05;;
58581;SDS011;44361;51.476;5.700;2023-04-15T09:13:11;7.72;;;3.97;;
58581;SDS011;44361;51.476;5.700;2023-04-15T09:15:37;6.97;;;3.90;;
58581;SDS011;44361;51.476;5.700;2023-04-15T09:18:03;8.18;;;4.20;;
58581;SDS011;44361;51.476;5.700;2023-04-15T09:20:28;6.00;;;3.80;;
58581;SDS011;44361;51.476;5.700;2023-04-15T09:22:54;5.78;;;3.30;;
58581;SDS011;44361;51.476;5.700;2023-04-15T09:27:49;4.88;;;3.08;;
58581;SDS011;44361;51.476;5.700;2023-04-15T09:30:15;5.40;;;3.28;;
58581;SDS011;44361;51.476;5.700;2023-04-15T09:32:51;5.68;;;3.08;;
58581;SDS011;44361;51.476;5.700;2023-04-15T09:35:17;6.10;;;3.65;;
58581;SDS011;44361;51.476;5.700;2023-04-15T09:37:43;4.45;;;2.80;;
58581;SDS011;44361;51.476;5.700;2023-04-15T09:40:10;4.72;;;2.75;;
58581;SDS011;44361;51.476;5.700;2023-04-15T09:42:36;6.53;;;2.88;;
58581;SDS011;44361;51.476;5.700;2023-04-15T09:45:17;8.32;;;2.63;;
58581;SDS011;44361;51.476;5.700;2023-04-15T09:47:43;3.95;;;2.30;;
58581;SDS011;44361;51.476;5.700;2023-04-15T09:50:09;6.88;;;2.72;;
58581;SDS011;44361;51.476;5.700;2023-04-15T09:52:39;4.78;;;3.05;;
58581;SDS011;44361;51.476;5.700;2023-04-15T09:55:07;5.10;;;2.72;;
58581;SDS011;44361;51.476;5.700;2023-04-15T09:57:33;5.93;;;3.20;;
58581;SDS011;44361;51.476;5.700;2023-04-15T10:00:00;4.55;;;3.10;;
58581;SDS011;44361;51.476;5.700;2023-04-15T10:02:30;8.60;;;2.92;;
58581;SDS011;44361;51.476;5.700;2023-04-15T10:04:56;4.55;;;2.65;;
58581;SDS011;44361;51.476;5.700;2023-04-15T10:07:22;4.55;;;3.20;;
58581;SDS011;44361;51.476;5.700;2023-04-15T10:09:48;9.35;;;3.05;;
58581;SDS011;44361;51.476;5.700;2023-04-15T10:12:15;3.83;;;2.50;;
58581;SDS011;44361;51.476;5.700;2023-04-15T10:14:41;4.25;;;2.40;;
58581;SDS011;44361;51.476;5.700;2023-04-15T10:17:09;4.28;;;2.40;;
58581;SDS011;44361;51.476;5.700;2023-04-15T10:19:38;4.05;;;2.75;;
58581;SDS011;44361;51.476;5.700;2023-04-15T10:22:05;3.20;;;2.22;;
58581;SDS011;44361;51.476;5.700;2023-04-15T10:24:31;4.30;;;2.60;;
58581;SDS011;44361;51.476;5.700;2023-04-15T10:26:57;5.47;;;2.15;;
58581;SDS011;44361;51.476;5.700;2023-04-15T10:29:24;4.15;;;1.95;;
58581;SDS011;44361;51.476;5.700;2023-04-15T10:31:53;2.50;;;1.63;;
58581;SDS011;44361;51.476;5.700;2023-04-15T10:34:20;3.55;;;2.20;;
58581;SDS011;44361;51.476;5.700;2023-04-15T10:36:47;5.75;;;2.67;;
58581;SDS011;44361;51.476;5.700;2023-04-15T10:44:59;2.90;;;2.10;;
58581;SDS011;44361;51.476;5.700;2023-04-15T10:47:25;2.55;;;1.90;;
58581;SDS011;44361;51.476;5.700;2023-04-15T10:49:51;2.88;;;1.70;;
58581;SDS011;44361;51.476;5.700;2023-04-15T10:52:25;4.70;;;2.30;;
58581;SDS011;44361;51.476;5.700;2023-04-15T10:57:33;3.50;;;1.90;;
58581;SDS011;44361;51.476;5.700;2023-04-15T11:00:03;3.45;;;2.08;;
58581;SDS011;44361;51.476;5.700;2023-04-15T11:02:40;3.63;;;2.38;;
58581;SDS011;44361;51.476;5.700;2023-04-15T11:05:08;3.92;;;2.13;;
58581;SDS011;44361;51.476;5.700;2023-04-15T11:07:56;2.17;;;1.75;;
58581;SDS011;44361;51.476;5.700;2023-04-15T11:12:58;2.67;;;1.80;;
58581;SDS011;44361;51.476;5.700;2023-04-15T11:15:38;3.55;;;2.08;;
58581;SDS011;44361;51.476;5.700;2023-04-15T11:20:36;4.50;;;2.30;;
58581;SDS011;44361;51.476;5.700;2023-04-15T11:23:03;4.28;;;1.75;;
58581;SDS011;44361;51.476;5.700;2023-04-15T11:25:30;3.33;;;2.13;;
58581;SDS011;44361;51.476;5.700;2023-04-15T11:27:57;3.00;;;1.70;;
58581;SDS011;44361;51.476;5.700;2023-04-15T11:30:25;3.45;;;1.70;;
58581;SDS011;44361;51.476;5.700;2023-04-15T11:32:53;6.90;;;2.50;;
58581;SDS011;44361;51.476;5.700;2023-04-15T11:35:23;3.50;;;2.40;;
58581;SDS011;44361;51.476;5.700;2023-04-15T11:37:48;2.95;;;2.33;;
58581;SDS011;44361;51.476;5.700;2023-04-15T11:40:14;4.15;;;2.17;;
58581;SDS011;44361;51.476;5.700;2023-04-15T11:42:42;2.80;;;1.92;;
58581;SDS011;44361;51.476;5.700;2023-04-15T11:45:12;3.13;;;2.03;;
58581;SDS011;44361;51.476;5.700;2023-04-15T11:47:39;4.18;;;2.10;;
58581;SDS011;44361;51.476;5.700;2023-04-15T11:50:12;2.38;;;1.70;;
58581;SDS011;44361;51.476;5.700;2023-04-15T11:52:55;2.97;;;1.92;;
58581;SDS011;44361;51.476;5.700;2023-04-15T11:55:22;4.63;;;2.45;;
58581;SDS011;44361;51.476;5.700;2023-04-15T11:57:49;3.92;;;2.22;;
58581;SDS011;44361;51.476;5.700;2023-04-15T12:00:15;4.25;;;2.38;;
58581;SDS011;44361;51.476;5.700;2023-04-15T12:02:41;3.10;;;2.05;;
58581;SDS011;44361;51.476;5.700;2023-04-15T12:05:07;3.28;;;2.15;;
58581;SDS011;44361;51.476;5.700;2023-04-15T12:10:23;2.00;;;1.42;;
58581;SDS011;44361;51.476;5.700;2023-04-15T12:12:51;2.67;;;1.95;;
58581;SDS011;44361;51.476;5.700;2023-04-15T12:15:17;2.42;;;1.60;;
58581;SDS011;44361;51.476;5.700;2023-04-15T12:17:46;5.00;;;1.83;;
58581;SDS011;44361;51.476;5.700;2023-04-15T12:20:12;4.45;;;1.95;;
58581;SDS011;44361;51.476;5.700;2023-04-15T12:22:38;3.00;;;1.98;;
58581;SDS011;44361;51.476;5.700;2023-04-15T12:25:03;2.67;;;1.65;;
58581;SDS011;44361;51.476;5.700;2023-04-15T12:27:30;2.60;;;1.70;;
58581;SDS011;44361;51.476;5.700;2023-04-15T12:30:05;2.75;;;1.20;;
58581;SDS011;44361;51.476;5.700;2023-04-15T12:32:34;2.35;;;1.65;;
58581;SDS011;44361;51.476;5.700;2023-04-15T12:35:00;2.40;;;1.08;;
58581;SDS011;44361;51.476;5.700;2023-04-15T12:37:25;2.63;;;1.35;;
58581;SDS011;44361;51.476;5.700;2023-04-15T12:39:51;2.53;;;1.30;;
58581;SDS011;44361;51.476;5.700;2023-04-15T12:42:18;2.38;;;1.55;;
58581;SDS011;44361;51.476;5.700;2023-04-15T12:44:44;4.55;;;1.90;;
58581;SDS011;44361;51.476;5.700;2023-04-15T12:47:10;2.90;;;1.42;;
58581;SDS011;44361;51.476;5.700;2023-04-15T12:49:36;2.60;;;1.60;;
58581;SDS011;44361;51.476;5.700;2023-04-15T12:52:03;2.70;;;1.60;;
58581;SDS011;44361;51.476;5.700;2023-04-15T12:54:29;2.65;;;1.73;;
58581;SDS011;44361;51.476;5.700;2023-04-15T12:56:56;2.03;;;1.13;;
58581;SDS011;44361;51.476;5.700;2023-04-15T12:59:22;3.53;;;1.25;;
58581;SDS011;44361;51.476;5.700;2023-04-15T13:01:48;3.08;;;1.40;;
58581;SDS011;44361;51.476;5.700;2023-04-15T13:04:15;3.83;;;1.75;;
58581;SDS011;44361;51.476;5.700;2023-04-15T13:06:41;2.00;;;1.30;;
58581;SDS011;44361;51.476;5.700;2023-04-15T13:09:07;2.10;;;1.38;;
58581;SDS011;44361;51.476;5.700;2023-04-15T13:11:33;2.65;;;1.75;;
58581;SDS011;44361;51.476;5.700;2023-04-15T13:14:00;3.28;;;1.67;;
58581;SDS011;44361;51.476;5.700;2023-04-15T13:16:27;2.03;;;1.40;;
58581;SDS011;44361;51.476;5.700;2023-04-15T13:18:53;3.08;;;1.50;;
58581;SDS011;44361;51.476;5.700;2023-04-15T13:21:18;1.70;;;1.33;;
58581;SDS011;44361;51.476;5.700;2023-04-15T13:23:44;3.28;;;1.35;;
58581;SDS011;44361;51.476;5.700;2023-04-15T13:26:09;3.60;;;1.40;;
58581;SDS011;44361;51.476;5.700;2023-04-15T13:28:35;4.35;;;1.50;;
58581;SDS011;44361;51.476;5.700;2023-04-15T13:31:01;2.20;;;1.48;;
58581;SDS011;44361;51.476;5.700;2023-04-15T13:33:26;3.45;;;1.65;;
58581;SDS011;44361;51.476;5.700;2023-04-15T13:35:52;1.63;;;1.13;;
58581;SDS011;44361;51.476;5.700;2023-04-15T13:38:17;2.38;;;1.30;;
58581;SDS011;44361;51.476;5.700;2023-04-15T13:40:43;2.83;;;1.33;;
58581;SDS011;44361;51.476;5.700;2023-04-15T13:43:09;2.80;;;1.33;;
58581;SDS011;44361;51.476;5.700;2023-04-15T13:45:35;3.38;;;1.00;;
58581;SDS011;44361;51.476;5.700;2023-04-15T13:48:00;2.17;;;1.23;;
58581;SDS011;44361;51.476;5.700;2023-04-15T13:50:26;1.73;;;1.17;;
58581;SDS011;44361;51.476;5.700;2023-04-15T13:52:52;1.90;;;1.20;;
58581;SDS011;44361;51.476;5.700;2023-04-15T13:55:18;4.32;;;1.40;;
58581;SDS011;44361;51.476;5.700;2023-04-15T13:57:44;6.50;;;1.83;;
58581;SDS011;44361;51.476;5.700;2023-04-15T14:00:10;2.83;;;1.77;;
58581;SDS011;44361;51.476;5.700;2023-04-15T14:02:36;2.65;;;1.30;;
58581;SDS011;44361;51.476;5.700;2023-04-15T14:05:01;4.93;;;1.60;;
58581;SDS011;44361;51.476;5.700;2023-04-15T14:07:28;3.90;;;1.95;;
58581;SDS011;44361;51.476;5.700;2023-04-15T14:09:54;3.72;;;1.40;;
58581;SDS011;44361;51.476;5.700;2023-04-15T14:12:20;2.33;;;1.30;;
58581;SDS011;44361;51.476;5.700;2023-04-15T14:14:46;3.03;;;1.35;;
58581;SDS011;44361;51.476;5.700;2023-04-15T14:17:11;1.60;;;1.10;;
58581;SDS011;44361;51.476;5.700;2023-04-15T14:19:37;2.20;;;1.40;;
58581;SDS011;44361;51.476;5.700;2023-04-15T14:22:03;5.47;;;1.20;;
58581;SDS011;44361;51.476;5.700;2023-04-15T14:24:28;2.67;;;1.30;;
58581;SDS011;44361;51.476;5.700;2023-04-15T14:26:54;1.27;;;0.90;;
58581;SDS011;44361;51.476;5.700;2023-04-15T14:29:21;1.70;;;0.80;;
58581;SDS011;44361;51.476;5.700;2023-04-15T14:31:47;3.08;;;1.02;;
58581;SDS011;44361;51.476;5.700;2023-04-15T14:34:13;1.70;;;0.95;;
58581;SDS011;44361;51.476;5.700;2023-04-15T14:36:40;2.35;;;1.00;;
58581;SDS011;44361;51.476;5.700;2023-04-15T14:39:06;2.75;;;0.93;;
58581;SDS011;44361;51.476;5.700;2023-04-15T14:41:32;2.15;;;0.80;;
58581;SDS011;44361;51.476;5.700;2023-04-15T14:43:58;1.83;;;0.80;;
58581;SDS011;44361;51.476;5.700;2023-04-15T14:46:24;1.30;;;0.85;;
58581;SDS011;44361;51.476;5.700;2023-04-15T14:48:50;2.17;;;0.90;;
58581;SDS011;44361;51.476;5.700;2023-04-15T14:51:15;1.80;;;0.90;;
58581;SDS011;44361;51.476;5.700;2023-04-15T14:53:41;3.28;;;0.70;;
58581;SDS011;44361;51.476;5.700;2023-04-15T14:56:07;1.33;;;0.80;;